sensor_id;sensor_type;location;lat;lon;timestamp;P1;durP1;ratioP1;P2;durP2;ratioP2
80119;SDS011;69425;55.040;82.918;2023-08-12T00:02:52;2.72;;;0.95;;
80119;SDS011;69425;55.040;82.918;2023-08-12T00:07:53;2.17;;;1.00;;
80119;SDS011;69425;55.040;82.918;2023-08-12T00:12:55;1.33;;;1.13;;
80119;SDS011;69425;55.040;82.918;2023-08-12T00:17:57;1.75;;;1.23;;
80119;SDS011;69425;55.040;82.918;2023-08-12T00:22:58;1.35;;;1.00;;
80119;SDS011;69425;55.040;82.918;2023-08-12T00:28:00;2.63;;;1.25;;
80119;SDS011;69425;55.040;82.918;2023-08-12T00:33:02;1.92;;;0.80;;
80119;SDS011;69425;55.040;82.918;2023-08-12T00:38:04;1.17;;;0.80;;
80119;SDS011;69425;55.040;82.918;2023-08-12T00:43:05;1.58;;;0.98;;
80119;SDS011;69425;55.040;82.918;2023-08-12T00:48:08;2.80;;;0.93;;
80119;SDS011;69425;55.040;82.918;2023-08-12T00:53:09;1.85;;;1.00;;
80119;SDS011;69425;55.040;82.918;2023-08-12T00:58:11;2.83;;;1.27;;
80119;SDS011;69425;55.040;82.918;2023-08-12T01:03:13;3.58;;;1.50;;
80119;SDS011;69425;55.040;82.918;2023-08-12T01:08:15;4.68;;;2.22;;
80119;SDS011;69425;55.040;82.918;2023-08-12T01:13:18;7.15;;;2.30;;
80119;SDS011;69425;55.040;82.918;2023-08-12T01:18:25;3.85;;;2.15;;
80119;SDS011;69425;55.040;82.918;2023-08-12T01:23:28;4.20;;;2.08;;
80119;SDS011;69425;55.040;82.918;2023-08-12T01:28:29;6.18;;;2.97;;
80119;SDS011;69425;55.040;82.918;2023-08-12T01:33:31;7.68;;;3.00;;
80119;SDS011;69425;55.040;82.918;2023-08-12T01:38:38;9.00;;;3.45;;
80119;SDS011;69425;55.040;82.918;2023-08-12T01:43:39;7.60;;;3.22;;
80119;SDS011;69425;55.040;82.918;2023-08-12T01:48:45;7.82;;;2.90;;
80119;SDS011;69425;55.040;82.918;2023-08-12T01:53:47;6.07;;;3.03;;
80119;SDS011;69425;55.040;82.918;2023-08-12T01:58:49;5.03;;;3.53;;
80119;SDS011;69425;55.040;82.918;2023-08-12T02:03:50;7.68;;;3.90;;
80119;SDS011;69425;55.040;82.918;2023-08-12T02:08:55;7.45;;;4.07;;
80119;SDS011;69425;55.040;82.918;2023-08-12T02:13:56;7.43;;;4.03;;
80119;SDS011;69425;55.040;82.918;2023-08-12T02:18:58;9.50;;;4.38;;
80119;SDS011;69425;55.040;82.918;2023-08-12T02:24:00;7.95;;;4.07;;
80119;SDS011;69425;55.040;82.918;2023-08-12T02:29:02;7.32;;;4.05;;
80119;SDS011;69425;55.040;82.918;2023-08-12T02:34:03;9.98;;;4.45;;
80119;SDS011;69425;55.040;82.918;2023-08-12T02:39:06;8.82;;;5.30;;
80119;SDS011;69425;55.040;82.918;2023-08-12T02:44:07;9.65;;;4.63;;
80119;SDS011;69425;55.040;82.918;2023-08-12T02:49:08;9.40;;;5.00;;
80119;SDS011;69425;55.040;82.918;2023-08-12T02:54:11;9.32;;;4.80;;
80119;SDS011;69425;55.040;82.918;2023-08-12T02:59:12;9.43;;;5.30;;
80119;SDS011;69425;55.040;82.918;2023-08-12T03:04:13;18.85;;;7.80;;
80119;SDS011;69425;55.040;82.918;2023-08-12T03:09:16;14.00;;;6.53;;
80119;SDS011;69425;55.040;82.918;2023-08-12T03:14:17;13.05;;;6.28;;
80119;SDS011;69425;55.040;82.918;2023-08-12T03:19:18;11.23;;;5.90;;
80119;SDS011;69425;55.040;82.918;2023-08-12T03:24:21;13.93;;;6.00;;
80119;SDS011;69425;55.040;82.918;2023-08-12T03:29:22;12.15;;;6.13;;
80119;SDS011;69425;55.040;82.918;2023-08-12T03:34:24;10.35;;;5.43;;
80119;SDS011;69425;55.040;82.918;2023-08-12T03:39:26;11.10;;;5.15;;
80119;SDS011;69425;55.040;82.918;2023-08-12T03:44:27;6.00;;;3.88;;
80119;SDS011;69425;55.040;82.918;2023-08-12T03:49:29;7.72;;;3.72;;
80119;SDS011;69425;55.040;82.918;2023-08-12T03:54:31;5.20;;;3.30;;
80119;SDS011;69425;55.040;82.918;2023-08-12T03:59:32;4.30;;;3.05;;
80119;SDS011;69425;55.040;82.918;2023-08-12T04:04:34;5.72;;;2.30;;
80119;SDS011;69425;55.040;82.918;2023-08-12T04:09:36;4.30;;;1.95;;
80119;SDS011;69425;55.040;82.918;2023-08-12T04:14:37;3.70;;;1.90;;
80119;SDS011;69425;55.040;82.918;2023-08-12T04:19:39;3.35;;;1.95;;
80119;SDS011;69425;55.040;82.918;2023-08-12T04:24:41;4.57;;;2.60;;
80119;SDS011;69425;55.040;82.918;2023-08-12T04:29:43;6.43;;;3.75;;
80119;SDS011;69425;55.040;82.918;2023-08-12T04:34:45;7.35;;;3.92;;
80119;SDS011;69425;55.040;82.918;2023-08-12T04:39:48;7.40;;;4.35;;
80119;SDS011;69425;55.040;82.918;2023-08-12T04:44:49;8.45;;;4.47;;
80119;SDS011;69425;55.040;82.918;2023-08-12T04:49:51;7.80;;;4.63;;
80119;SDS011;69425;55.040;82.918;2023-08-12T04:54:54;9.77;;;4.53;;
80119;SDS011;69425;55.040;82.918;2023-08-12T04:59:55;11.80;;;4.63;;
80119;SDS011;69425;55.040;82.918;2023-08-12T05:04:57;6.82;;;3.83;;
80119;SDS011;69425;55.040;82.918;2023-08-12T05:10:01;7.43;;;3.50;;
80119;SDS011;69425;55.040;82.918;2023-08-12T05:15:02;6.05;;;3.55;;
80119;SDS011;69425;55.040;82.918;2023-08-12T05:20:05;6.18;;;3.40;;
80119;SDS011;69425;55.040;82.918;2023-08-12T05:25:11;5.60;;;3.38;;
80119;SDS011;69425;55.040;82.918;2023-08-12T05:30:13;5.60;;;2.95;;
80119;SDS011;69425;55.040;82.918;2023-08-12T05:35:16;5.25;;;2.03;;
80119;SDS011;69425;55.040;82.918;2023-08-12T05:40:19;3.50;;;2.13;;
80119;SDS011;69425;55.040;82.918;2023-08-12T05:45:20;5.00;;;2.20;;
80119;SDS011;69425;55.040;82.918;2023-08-12T05:50:22;4.40;;;1.90;;
80119;SDS011;69425;55.040;82.918;2023-08-12T05:55:24;3.67;;;1.92;;
80119;SDS011;69425;55.040;82.918;2023-08-12T06:00:26;3.85;;;2.08;;
80119;SDS011;69425;55.040;82.918;2023-08-12T06:05:27;3.08;;;1.70;;
80119;SDS011;69425;55.040;82.918;2023-08-12T06:10:30;3.45;;;1.80;;
80119;SDS011;69425;55.040;82.918;2023-08-12T06:15:31;6.30;;;2.50;;
80119;SDS011;69425;55.040;82.918;2023-08-12T06:20:32;4.22;;;2.00;;
80119;SDS011;69425;55.040;82.918;2023-08-12T06:25:35;3.80;;;1.85;;
80119;SDS011;69425;55.040;82.918;2023-08-12T06:30:36;4.20;;;1.85;;
80119;SDS011;69425;55.040;82.918;2023-08-12T06:35:37;3.90;;;1.73;;
80119;SDS011;69425;55.040;82.918;2023-08-12T06:40:40;10.13;;;4.38;;
80119;SDS011;69425;55.040;82.918;2023-08-12T06:45:41;3.78;;;1.83;;
80119;SDS011;69425;55.040;82.918;2023-08-12T06:50:42;5.00;;;2.15;;
80119;SDS011;69425;55.040;82.918;2023-08-12T06:55:45;6.75;;;2.58;;
80119;SDS011;69425;55.040;82.918;2023-08-12T07:00:46;5.35;;;2.53;;
80119;SDS011;69425;55.040;82.918;2023-08-12T07:05:48;3.25;;;1.88;;
80119;SDS011;69425;55.040;82.918;2023-08-12T07:10:50;5.03;;;1.63;;
80119;SDS011;69425;55.040;82.918;2023-08-12T07:15:52;3.35;;;1.35;;
80119;SDS011;69425;55.040;82.918;2023-08-12T07:20:53;3.13;;;1.40;;
80119;SDS011;69425;55.040;82.918;2023-08-12T07:25:55;1.88;;;1.40;;
80119;SDS011;69425;55.040;82.918;2023-08-12T07:30:57;5.13;;;1.58;;
80119;SDS011;69425;55.040;82.918;2023-08-12T07:36:00;1.67;;;1.20;;
80119;SDS011;69425;55.040;82.918;2023-08-12T07:41:03;3.78;;;1.92;;
80119;SDS011;69425;55.040;82.918;2023-08-12T07:46:04;3.97;;;1.50;;
80119;SDS011;69425;55.040;82.918;2023-08-12T07:51:06;5.07;;;1.98;;
80119;SDS011;69425;55.040;82.918;2023-08-12T07:56:08;4.13;;;1.40;;
80119;SDS011;69425;55.040;82.918;2023-08-12T08:01:09;3.05;;;1.30;;
80119;SDS011;69425;55.040;82.918;2023-08-12T08:06:11;2.58;;;1.00;;
80119;SDS011;69425;55.040;82.918;2023-08-12T08:11:13;2.15;;;1.00;;
80119;SDS011;69425;55.040;82.918;2023-08-12T08:16:15;2.55;;;1.05;;
80119;SDS011;69425;55.040;82.918;2023-08-12T08:21:16;3.25;;;1.30;;
80119;SDS011;69425;55.040;82.918;2023-08-12T08:26:18;1.88;;;1.10;;
80119;SDS011;69425;55.040;82.918;2023-08-12T08:31:20;1.30;;;0.93;;
80119;SDS011;69425;55.040;82.918;2023-08-12T08:36:21;3.95;;;1.63;;
80119;SDS011;69425;55.040;82.918;2023-08-12T08:41:24;3.65;;;1.40;;
80119;SDS011;69425;55.040;82.918;2023-08-12T08:46:25;9.77;;;4.68;;
80119;SDS011;69425;55.040;82.918;2023-08-12T08:51:26;3.20;;;2.13;;
80119;SDS011;69425;55.040;82.918;2023-08-12T08:56:29;5.22;;;1.98;;
80119;SDS011;69425;55.040;82.918;2023-08-12T09:01:31;2.63;;;1.90;;
80119;SDS011;69425;55.040;82.918;2023-08-12T09:06:33;2.58;;;1.40;;
80119;SDS011;69425;55.040;82.918;2023-08-12T09:11:37;3.05;;;1.23;;
80119;SDS011;69425;55.040;82.918;2023-08-12T09:16:39;2.38;;;1.50;;
80119;SDS011;69425;55.040;82.918;2023-08-12T09:21:42;2.08;;;1.35;;
80119;SDS011;69425;55.040;82.918;2023-08-12T09:26:44;2.80;;;1.63;;
80119;SDS011;69425;55.040;82.918;2023-08-12T09:31:52;5.43;;;2.47;;
80119;SDS011;69425;55.040;82.918;2023-08-12T09:36:53;2.30;;;1.60;;
80119;SDS011;69425;55.040;82.918;2023-08-12T09:41:56;4.68;;;1.52;;
80119;SDS011;69425;55.040;82.918;2023-08-12T09:46:57;3.05;;;1.52;;
80119;SDS011;69425;55.040;82.918;2023-08-12T09:51:58;4.45;;;1.50;;
80119;SDS011;69425;55.040;82.918;2023-08-12T09:57:02;3.20;;;1.55;;
80119;SDS011;69425;55.040;82.918;2023-08-12T10:02:05;2.55;;;1.52;;
80119;SDS011;69425;55.040;82.918;2023-08-12T10:07:07;4.75;;;2.10;;
80119;SDS011;69425;55.040;82.918;2023-08-12T10:12:10;3.67;;;1.77;;
80119;SDS011;69425;55.040;82.918;2023-08-12T10:17:12;4.28;;;1.98;;
80119;SDS011;69425;55.040;82.918;2023-08-12T10:22:14;3.05;;;1.45;;
80119;SDS011;69425;55.040;82.918;2023-08-12T10:27:17;3.30;;;2.00;;
80119;SDS011;69425;55.040;82.918;2023-08-12T10:32:19;5.25;;;2.33;;
80119;SDS011;69425;55.040;82.918;2023-08-12T10:37:20;5.82;;;2.45;;
80119;SDS011;69425;55.040;82.918;2023-08-12T10:42:41;3.67;;;1.90;;
80119;SDS011;69425;55.040;82.918;2023-08-12T10:47:47;3.45;;;1.52;;
80119;SDS011;69425;55.040;82.918;2023-08-12T10:52:51;2.97;;;1.60;;
80119;SDS011;69425;55.040;82.918;2023-08-12T10:57:54;4.45;;;1.65;;
80119;SDS011;69425;55.040;82.918;2023-08-12T11:02:56;2.97;;;1.50;;
80119;SDS011;69425;55.040;82.918;2023-08-12T11:07:58;3.60;;;1.83;;
80119;SDS011;69425;55.040;82.918;2023-08-12T11:13:01;4.50;;;2.58;;
80119;SDS011;69425;55.040;82.918;2023-08-12T11:18:04;10.60;;;5.93;;
80119;SDS011;69425;55.040;82.918;2023-08-12T11:23:06;3.15;;;1.90;;
80119;SDS011;69425;55.040;82.918;2023-08-12T11:28:09;3.13;;;1.52;;
80119;SDS011;69425;55.040;82.918;2023-08-12T11:33:10;3.20;;;1.50;;
80119;SDS011;69425;55.040;82.918;2023-08-12T11:38:12;1.75;;;0.90;;
80119;SDS011;69425;55.040;82.918;2023-08-12T11:43:15;1.98;;;0.70;;
80119;SDS011;69425;55.040;82.918;2023-08-12T11:48:16;6.25;;;3.45;;
80119;SDS011;69425;55.040;82.918;2023-08-12T11:53:17;2.95;;;1.17;;
80119;SDS011;69425;55.040;82.918;2023-08-12T11:58:20;3.47;;;1.48;;
80119;SDS011;69425;55.040;82.918;2023-08-12T12:03:21;3.67;;;1.92;;
80119;SDS011;69425;55.040;82.918;2023-08-12T12:08:22;6.40;;;2.08;;
80119;SDS011;69425;55.040;82.918;2023-08-12T12:13:25;4.03;;;1.90;;
80119;SDS011;69425;55.040;82.918;2023-08-12T12:18:26;3.13;;;1.80;;
80119;SDS011;69425;55.040;82.918;2023-08-12T12:23:27;6.75;;;3.50;;
80119;SDS011;69425;55.040;82.918;2023-08-12T12:28:30;7.20;;;2.35;;
80119;SDS011;69425;55.040;82.918;2023-08-12T12:33:32;3.80;;;2.17;;
80119;SDS011;69425;55.040;82.918;2023-08-12T12:38:33;3.88;;;1.98;;
80119;SDS011;69425;55.040;82.918;2023-08-12T12:43:35;2.90;;;1.75;;
80119;SDS011;69425;55.040;82.918;2023-08-12T12:48:37;4.10;;;1.92;;
80119;SDS011;69425;55.040;82.918;2023-08-12T12:53:38;4.93;;;2.30;;
80119;SDS011;69425;55.040;82.918;2023-08-12T12:58:40;4.05;;;2.25;;
80119;SDS011;69425;55.040;82.918;2023-08-12T13:03:42;4.32;;;2.45;;
80119;SDS011;69425;55.040;82.918;2023-08-12T13:08:43;4.97;;;2.42;;
80119;SDS011;69425;55.040;82.918;2023-08-12T13:13:46;4.45;;;2.47;;
80119;SDS011;69425;55.040;82.918;2023-08-12T13:18:47;4.00;;;2.40;;
80119;SDS011;69425;55.040;82.918;2023-08-12T13:23:48;9.30;;;6.03;;
80119;SDS011;69425;55.040;82.918;2023-08-12T13:28:51;4.25;;;2.28;;
80119;SDS011;69425;55.040;82.918;2023-08-12T13:33:52;5.22;;;2.88;;
80119;SDS011;69425;55.040;82.918;2023-08-12T13:38:53;5.70;;;2.85;;
80119;SDS011;69425;55.040;82.918;2023-08-12T13:43:56;3.67;;;2.28;;
80119;SDS011;69425;55.040;82.918;2023-08-12T13:48:57;5.78;;;2.50;;
80119;SDS011;69425;55.040;82.918;2023-08-12T13:53:58;5.05;;;3.55;;
80119;SDS011;69425;55.040;82.918;2023-08-12T13:59:01;6.15;;;2.83;;
80119;SDS011;69425;55.040;82.918;2023-08-12T14:04:02;3.63;;;2.28;;
80119;SDS011;69425;55.040;82.918;2023-08-12T14:09:04;3.65;;;1.90;;
80119;SDS011;69425;55.040;82.918;2023-08-12T14:14:07;4.00;;;2.30;;
80119;SDS011;69425;55.040;82.918;2023-08-12T14:19:08;4.00;;;2.53;;
80119;SDS011;69425;55.040;82.918;2023-08-12T14:24:09;4.50;;;2.58;;
80119;SDS011;69425;55.040;82.918;2023-08-12T14:29:12;5.28;;;2.40;;
80119;SDS011;69425;55.040;82.918;2023-08-12T14:34:13;6.03;;;2.63;;
80119;SDS011;69425;55.040;82.918;2023-08-12T14:39:14;4.13;;;2.70;;
80119;SDS011;69425;55.040;82.918;2023-08-12T14:44:17;10.18;;;6.82;;
80119;SDS011;69425;55.040;82.918;2023-08-12T14:49:18;3.20;;;2.00;;
80119;SDS011;69425;55.040;82.918;2023-08-12T14:54:19;9.35;;;4.30;;
80119;SDS011;69425;55.040;82.918;2023-08-12T14:59:22;3.33;;;2.10;;
80119;SDS011;69425;55.040;82.918;2023-08-12T15:04:23;3.15;;;1.60;;
80119;SDS011;69425;55.040;82.918;2023-08-12T15:09:24;5.63;;;2.33;;
80119;SDS011;69425;55.040;82.918;2023-08-12T15:14:27;5.60;;;3.05;;
80119;SDS011;69425;55.040;82.918;2023-08-12T15:19:29;6.22;;;3.38;;
80119;SDS011;69425;55.040;82.918;2023-08-12T15:24:31;5.47;;;2.92;;
80119;SDS011;69425;55.040;82.918;2023-08-12T15:29:33;3.95;;;2.15;;
80119;SDS011;69425;55.040;82.918;2023-08-12T15:34:35;1.90;;;1.27;;
80119;SDS011;69425;55.040;82.918;2023-08-12T15:39:36;2.38;;;1.10;;
80119;SDS011;69425;55.040;82.918;2023-08-12T15:44:38;2.85;;;1.38;;
80119;SDS011;69425;55.040;82.918;2023-08-12T15:49:40;2.65;;;1.27;;
80119;SDS011;69425;55.040;82.918;2023-08-12T15:54:41;2.92;;;1.10;;
80119;SDS011;69425;55.040;82.918;2023-08-12T15:59:43;2.72;;;1.30;;
80119;SDS011;69425;55.040;82.918;2023-08-12T16:04:45;4.03;;;1.98;;
80119;SDS011;69425;55.040;82.918;2023-08-12T16:09:46;3.15;;;0.75;;
80119;SDS011;69425;55.040;82.918;2023-08-12T16:14:49;3.05;;;0.80;;
80119;SDS011;69425;55.040;82.918;2023-08-12T16:19:50;1.65;;;0.80;;
80119;SDS011;69425;55.040;82.918;2023-08-12T16:24:51;1.08;;;0.55;;
80119;SDS011;69425;55.040;82.918;2023-08-12T16:29:54;0.85;;;0.60;;
80119;SDS011;69425;55.040;82.918;2023-08-12T16:34:55;0.93;;;0.40;;
80119;SDS011;69425;55.040;82.918;2023-08-12T16:39:56;1.52;;;0.52;;
80119;SDS011;69425;55.040;82.918;2023-08-12T16:44:59;1.20;;;0.57;;
80119;SDS011;69425;55.040;82.918;2023-08-12T16:50:00;2.08;;;0.50;;
80119;SDS011;69425;55.040;82.918;2023-08-12T16:55:02;1.00;;;0.40;;
80119;SDS011;69425;55.040;82.918;2023-08-12T17:00:07;1.67;;;0.75;;
80119;SDS011;69425;55.040;82.918;2023-08-12T17:05:08;1.95;;;0.63;;
80119;SDS011;69425;55.040;82.918;2023-08-12T17:10:10;1.48;;;0.50;;
80119;SDS011;69425;55.040;82.918;2023-08-12T17:15:12;1.23;;;0.50;;
80119;SDS011;69425;55.040;82.918;2023-08-12T17:20:14;1.15;;;0.70;;
80119;SDS011;69425;55.040;82.918;2023-08-12T17:25:15;2.17;;;0.75;;
80119;SDS011;69425;55.040;82.918;2023-08-12T17:30:18;1.38;;;0.50;;
80119;SDS011;69425;55.040;82.918;2023-08-12T17:35:19;1.13;;;0.65;;
80119;SDS011;69425;55.040;82.918;2023-08-12T17:40:20;1.83;;;0.57;;
80119;SDS011;69425;55.040;82.918;2023-08-12T17:45:23;2.53;;;0.77;;
80119;SDS011;69425;55.040;82.918;2023-08-12T17:50:24;1.33;;;0.70;;
80119;SDS011;69425;55.040;82.918;2023-08-12T17:55:26;1.45;;;0.52;;
80119;SDS011;69425;55.040;82.918;2023-08-12T18:00:28;1.67;;;0.95;;
80119;SDS011;69425;55.040;82.918;2023-08-12T18:05:30;1.20;;;0.60;;
80119;SDS011;69425;55.040;82.918;2023-08-12T18:10:31;1.05;;;0.60;;
80119;SDS011;69425;55.040;82.918;2023-08-12T18:15:34;1.95;;;0.90;;
80119;SDS011;69425;55.040;82.918;2023-08-12T18:20:35;1.00;;;0.52;;
80119;SDS011;69425;55.040;82.918;2023-08-12T18:25:36;1.67;;;0.73;;
80119;SDS011;69425;55.040;82.918;2023-08-12T18:30:39;1.38;;;0.70;;
80119;SDS011;69425;55.040;82.918;2023-08-12T18:35:40;0.82;;;0.50;;
80119;SDS011;69425;55.040;82.918;2023-08-12T18:40:41;1.67;;;0.60;;
80119;SDS011;69425;55.040;82.918;2023-08-12T18:45:44;2.03;;;0.57;;
80119;SDS011;69425;55.040;82.918;2023-08-12T18:50:45;1.00;;;0.40;;
80119;SDS011;69425;55.040;82.918;2023-08-12T18:55:46;0.70;;;0.32;;
80119;SDS011;69425;55.040;82.918;2023-08-12T19:00:49;0.80;;;0.40;;
80119;SDS011;69425;55.040;82.918;2023-08-12T19:05:55;1.27;;;0.60;;
80119;SDS011;69425;55.040;82.918;2023-08-12T19:10:57;1.58;;;0.45;;
80119;SDS011;69425;55.040;82.918;2023-08-12T19:16:00;1.40;;;0.30;;
80119;SDS011;69425;55.040;82.918;2023-08-12T19:21:01;0.90;;;0.43;;
80119;SDS011;69425;55.040;82.918;2023-08-12T19:26:02;0.68;;;0.47;;
80119;SDS011;69425;55.040;82.918;2023-08-12T19:31:05;1.08;;;0.55;;
80119;SDS011;69425;55.040;82.918;2023-08-12T19:36:06;0.50;;;0.20;;
80119;SDS011;69425;55.040;82.918;2023-08-12T19:41:07;0.65;;;0.38;;
80119;SDS011;69425;55.040;82.918;2023-08-12T19:46:10;1.20;;;0.40;;
80119;SDS011;69425;55.040;82.918;2023-08-12T19:51:11;0.73;;;0.40;;
80119;SDS011;69425;55.040;82.918;2023-08-12T19:56:12;0.38;;;0.30;;
80119;SDS011;69425;55.040;82.918;2023-08-12T20:01:15;1.48;;;0.43;;
80119;SDS011;69425;55.040;82.918;2023-08-12T20:06:16;0.75;;;0.30;;
80119;SDS011;69425;55.040;82.918;2023-08-12T20:11:17;1.60;;;0.40;;
80119;SDS011;69425;55.040;82.918;2023-08-12T20:16:20;0.55;;;0.28;;
80119;SDS011;69425;55.040;82.918;2023-08-12T20:21:21;0.77;;;0.30;;
80119;SDS011;69425;55.040;82.918;2023-08-12T20:26:23;0.38;;;0.20;;
80119;SDS011;69425;55.040;82.918;2023-08-12T20:31:25;0.40;;;0.20;;
80119;SDS011;69425;55.040;82.918;2023-08-12T20:36:26;0.63;;;0.35;;
80119;SDS011;69425;55.040;82.918;2023-08-12T20:41:28;0.63;;;0.20;;
80119;SDS011;69425;55.040;82.918;2023-08-12T20:46:30;0.35;;;0.20;;
80119;SDS011;69425;55.040;82.918;2023-08-12T20:51:39;1.00;;;0.25;;
80119;SDS011;69425;55.040;82.918;2023-08-12T20:56:40;1.52;;;0.20;;
80119;SDS011;69425;55.040;82.918;2023-08-12T21:01:43;0.45;;;0.30;;
80119;SDS011;69425;55.040;82.918;2023-08-12T21:06:44;0.30;;;0.20;;
80119;SDS011;69425;55.040;82.918;2023-08-12T21:11:45;0.52;;;0.30;;
80119;SDS011;69425;55.040;82.918;2023-08-12T21:16:48;1.45;;;0.52;;
80119;SDS011;69425;55.040;82.918;2023-08-12T21:21:49;0.80;;;0.28;;
80119;SDS011;69425;55.040;82.918;2023-08-12T21:26:50;2.10;;;0.40;;
80119;SDS011;69425;55.040;82.918;2023-08-12T21:31:53;0.38;;;0.22;;
80119;SDS011;69425;55.040;82.918;2023-08-12T21:36:54;0.35;;;0.13;;
80119;SDS011;69425;55.040;82.918;2023-08-12T21:41:55;0.55;;;0.20;;
80119;SDS011;69425;55.040;82.918;2023-08-12T21:46:58;0.32;;;0.20;;
80119;SDS011;69425;55.040;82.918;2023-08-12T21:51:59;0.68;;;0.20;;
80119;SDS011;69425;55.040;82.918;2023-08-12T21:57:00;0.60;;;0.30;;
80119;SDS011;69425;55.040;82.918;2023-08-12T22:02:03;0.70;;;0.10;;
80119;SDS011;69425;55.040;82.918;2023-08-12T22:07:05;0.75;;;0.20;;
80119;SDS011;69425;55.040;82.918;2023-08-12T22:12:06;0.50;;;0.22;;
80119;SDS011;69425;55.040;82.918;2023-08-12T22:17:09;0.52;;;0.20;;
80119;SDS011;69425;55.040;82.918;2023-08-12T22:22:10;0.38;;;0.20;;
80119;SDS011;69425;55.040;82.918;2023-08-12T22:27:12;0.60;;;0.30;;
80119;SDS011;69425;55.040;82.918;2023-08-12T22:32:14;0.50;;;0.15;;
80119;SDS011;69425;55.040;82.918;2023-08-12T22:37:16;0.40;;;0.25;;
80119;SDS011;69425;55.040;82.918;2023-08-12T22:42:17;0.35;;;0.25;;
80119;SDS011;69425;55.040;82.918;2023-08-12T22:47:20;1.00;;;0.20;;
80119;SDS011;69425;55.040;82.918;2023-08-12T22:52:21;0.20;;;0.20;;
80119;SDS011;69425;55.040;82.918;2023-08-12T22:57:22;0.50;;;0.25;;
80119;SDS011;69425;55.040;82.918;2023-08-12T23:02:25;0.45;;;0.20;;
80119;SDS011;69425;55.040;82.918;2023-08-12T23:07:26;0.60;;;0.30;;
80119;SDS011;69425;55.040;82.918;2023-08-12T23:12:27;0.88;;;0.30;;
80119;SDS011;69425;55.040;82.918;2023-08-12T23:17:30;0.20;;;0.17;;
80119;SDS011;69425;55.040;82.918;2023-08-12T23:22:31;0.40;;;0.20;;
80119;SDS011;69425;55.040;82.918;2023-08-12T23:27:32;0.47;;;0.20;;
80119;SDS011;69425;55.040;82.918;2023-08-12T23:32:35;0.17;;;0.13;;
80119;SDS011;69425;55.040;82.918;2023-08-12T23:37:36;0.52;;;0.32;;
80119;SDS011;69425;55.040;82.918;2023-08-12T23:47:40;1.92;;;0.30;;
80119;SDS011;69425;55.040;82.918;2023-08-12T23:52:41;0.32;;;0.13;;
